Time;durP1;ratioP1;P1;durP2;ratioP2;P2;SDS_P1;SDS_P2;PMS_P1;PMS_P2;Temp;Humidity;BMP_temperature;BMP_pressure;BME280_temperature;BME280_humidity;BME280_pressure;Samples;Min_cycle;Max_cycle;Signal;HPM_P1;HPM_P2
2023/10/16 00:03:22;;;;;;;0.43;0.30;;;;;;;10.62;89.19;96007.19;4279776;33;20206;-61
2023/10/16 00:05:51;;;;;;;1.50;0.53;;;;;;;10.11;88.06;96006.69;4277811;33;20195;-59
2023/10/16 00:08:18;;;;;;;0.53;0.53;;;;;;;10.29;89.49;96008.75;4323081;32;20197;-60
2023/10/16 00:10:56;;;;;;;0.40;0.40;;;;;;;10.42;90.66;96004.69;4348905;32;20197;-59
2023/10/16 00:13:26;;;;;;;1.43;0.77;;;;;;;10.22;90.73;95994.19;4357614;32;20216;-59
2023/10/16 00:15:54;;;;;;;1.37;1.10;;;;;;;10.53;89.78;96000.13;4348047;32;20233;-59
2023/10/16 00:18:22;;;;;;;0.93;0.87;;;;;;;10.37;87.36;95999.44;4361432;32;20193;-60
2023/10/16 00:20:49;;;;;;;0.80;0.80;;;;;;;10.58;87.68;95997.44;4346155;32;20307;-59
2023/10/16 00:23:15;;;;;;;0.50;0.50;;;;;;;10.07;87.99;95994.25;4360489;32;20203;-59
2023/10/16 00:25:41;;;;;;;1.00;0.93;;;;;;;10.29;89.23;95994.69;4346816;32;20268;-59
2023/10/16 00:28:10;;;;;;;0.83;0.83;;;;;;;10.15;91.10;95994.47;4346696;32;20211;-59
2023/10/16 00:33:59;;;;;;;0.60;0.60;;;;;;;10.30;88.86;95986.47;4359977;32;20260;-59
2023/10/16 00:36:24;;;;;;;1.43;0.77;;;;;;;10.09;88.67;95984.97;4346544;32;20205;-59
2023/10/16 00:38:51;;;;;;;0.40;0.40;;;;;;;9.94;91.16;95993.78;4348029;32;20192;-59
2023/10/16 00:41:17;;;;;;;0.10;0.10;;;;;;;9.93;92.22;95983.47;4346213;32;20189;-60
2023/10/16 00:43:45;;;;;;;1.43;0.63;;;;;;;10.20;88.83;95983.06;4359961;32;20192;-59
2023/10/16 00:46:44;;;;;;;0.47;0.47;;;;;;;10.18;89.44;95978.03;4346414;32;20288;-59
2023/10/16 00:49:13;;;;;;;0.30;0.30;;;;;;;9.84;88.02;95974.47;4359658;32;20236;-59
2023/10/16 00:51:39;;;;;;;0.40;0.40;;;;;;;9.69;90.16;95974.53;4359011;32;20190;-59
2023/10/16 00:54:18;;;;;;;3.40;1.17;;;;;;;9.78;90.32;95972.91;4345478;32;20197;-59
2023/10/16 00:56:50;;;;;;;0.40;0.40;;;;;;;9.86;91.40;95961.75;4360156;32;20189;-59
2023/10/16 00:59:16;;;;;;;3.03;1.00;;;;;;;9.71;88.95;95967.91;4360734;32;20220;-59
2023/10/16 01:01:43;;;;;;;0.70;0.70;;;;;;;9.92;88.97;95952.72;4361989;32;20200;-59
2023/10/16 01:04:10;;;;;;;0.53;0.53;;;;;;;9.73;89.34;95957.06;4347776;32;20243;-59
2023/10/16 01:06:41;;;;;;;0.20;0.20;;;;;;;9.79;90.48;95961.25;4347869;32;20189;-60
2023/10/16 01:09:22;;;;;;;0.50;0.50;;;;;;;9.67;89.01;95958.12;4361877;32;20258;-59
2023/10/16 01:11:48;;;;;;;0.80;0.80;;;;;;;9.71;86.36;95959.16;4352999;32;20193;-59
2023/10/16 01:14:13;;;;;;;0.60;0.60;;;;;;;10.03;88.05;95958.75;4347950;32;20226;-59
2023/10/16 01:16:39;;;;;;;0.80;0.80;;;;;;;9.80;90.25;95955.66;4348278;32;20192;-59
2023/10/16 01:19:08;;;;;;;0.80;0.80;;;;;;;9.73;88.49;95959.69;4361359;32;20235;-59
2023/10/16 01:21:33;;;;;;;0.60;0.60;;;;;;;9.64;89.39;95954.16;4343562;32;20223;-59
2023/10/16 01:24:16;;;;;;;0.50;0.50;;;;;;;9.56;89.71;95960.03;4345724;32;20180;-59
2023/10/16 01:26:42;;;;;;;0.93;0.73;;;;;;;9.93;88.93;95956.94;4360458;32;20184;-59
2023/10/16 01:29:11;;;;;;;0.60;0.50;;;;;;;9.73;88.03;95952.53;4347935;32;20185;-59
2023/10/16 01:31:37;;;;;;;0.70;0.70;;;;;;;9.95;87.13;95946.87;4346825;32;20204;-59
2023/10/16 01:34:04;;;;;;;0.83;0.83;;;;;;;10.01;88.54;95959.00;4347693;32;20193;-59
2023/10/16 01:36:33;;;;;;;0.50;0.40;;;;;;;9.26;87.98;95955.63;4361397;32;20211;-59
2023/10/16 01:38:59;;;;;;;0.60;0.60;;;;;;;9.72;88.38;95952.81;4361749;32;20208;-59
2023/10/16 01:41:25;;;;;;;0.40;0.40;;;;;;;9.42;86.97;95953.72;4347186;32;20190;-59
2023/10/16 01:43:52;;;;;;;0.57;0.50;;;;;;;9.68;87.90;95951.75;4356122;32;20215;-60
2023/10/16 01:46:18;;;;;;;2.43;0.77;;;;;;;9.20;87.83;95954.03;4344323;32;20197;-59
2023/10/16 01:48:45;;;;;;;0.33;0.30;;;;;;;9.14;91.05;95952.47;4361213;32;20256;-59
2023/10/16 01:51:19;;;;;;;0.73;0.73;;;;;;;9.52;88.85;95949.19;4355155;32;20221;-59
2023/10/16 01:53:47;;;;;;;1.03;0.53;;;;;;;9.73;87.48;95943.81;4347604;32;20249;-59
2023/10/16 01:56:14;;;;;;;0.60;0.60;;;;;;;9.36;88.09;95941.53;4347421;32;20197;-59
2023/10/16 01:58:44;;;;;;;0.60;0.60;;;;;;;9.11;86.24;95947.72;4347287;32;20185;-59
2023/10/16 02:01:19;;;;;;;0.40;0.40;;;;;;;9.41;89.39;95942.31;4347437;32;20204;-59
2023/10/16 02:03:50;;;;;;;0.90;0.90;;;;;;;9.51;88.64;95937.00;4346848;32;20192;-59
2023/10/16 02:06:16;;;;;;;0.50;0.50;;;;;;;9.25;88.11;95946.09;4346557;32;20277;-59
2023/10/16 02:08:45;;;;;;;0.30;0.30;;;;;;;9.08;89.73;95938.44;4342325;32;20215;-60
2023/10/16 02:11:11;;;;;;;0.83;0.80;;;;;;;8.65;89.34;95944.31;4361336;32;20290;-59
2023/10/16 02:13:40;;;;;;;11.83;0.80;;;;;;;8.96;88.95;95936.06;4360841;32;20201;-60
2023/10/16 02:16:10;;;;;;;0.53;0.53;;;;;;;9.09;89.52;95933.97;4359955;32;20253;-59
2023/10/16 02:18:40;;;;;;;0.60;0.60;;;;;;;9.03;88.63;95935.81;4347278;32;20220;-59
2023/10/16 02:21:12;;;;;;;0.13;0.13;;;;;;;9.14;89.01;95936.59;4350959;32;20200;-60
2023/10/16 02:23:38;;;;;;;0.40;0.40;;;;;;;8.78;88.47;95939.28;4360919;32;20322;-60
2023/10/16 02:26:06;;;;;;;0.40;0.30;;;;;;;8.93;89.39;95931.34;4357442;32;20185;-59
2023/10/16 02:28:34;;;;;;;0.47;0.47;;;;;;;9.12;88.99;95917.53;4347444;32;20197;-59
2023/10/16 02:31:10;;;;;;;0.60;0.60;;;;;;;8.68;89.70;95931.37;4354266;32;20449;-60
2023/10/16 02:33:36;;;;;;;0.50;0.50;;;;;;;8.73;88.73;95923.41;4350079;32;20207;-60
2023/10/16 02:36:02;;;;;;;0.30;0.30;;;;;;;8.93;90.25;95920.75;4356761;32;20216;-59
2023/10/16 02:38:28;;;;;;;0.40;0.40;;;;;;;9.16;87.02;95916.72;4347569;32;20193;-59
2023/10/16 02:41:00;;;;;;;0.27;0.27;;;;;;;9.54;88.26;95914.50;4363544;32;20223;-59
2023/10/16 02:43:25;;;;;;;3.07;1.30;;;;;;;9.51;88.58;95902.56;4340812;32;20185;-59
2023/10/16 02:45:54;;;;;;;0.10;0.10;;;;;;;9.66;87.95;95904.34;4363270;32;20223;-60
2023/10/16 02:48:20;;;;;;;0.27;0.27;;;;;;;9.55;86.27;95890.38;4365175;32;20208;-59
2023/10/16 02:50:59;;;;;;;0.37;0.37;;;;;;;9.70;87.20;95897.44;4363984;32;20245;-59
2023/10/16 02:53:27;;;;;;;0.23;0.23;;;;;;;9.39;86.52;95901.28;4346676;32;20192;-59
2023/10/16 02:55:57;;;;;;;2.73;1.00;;;;;;;9.39;86.27;95902.06;4347223;32;20197;-59
2023/10/16 02:58:26;;;;;;;0.67;0.67;;;;;;;9.61;88.69;95899.87;4347202;32;20212;-59
2023/10/16 03:00:56;;;;;;;0.20;0.20;;;;;;;8.99;87.58;95903.00;4346338;32;20190;-59
2023/10/16 03:03:28;;;;;;;0.30;0.30;;;;;;;9.28;88.83;95903.97;4357317;32;20216;-59
2023/10/16 03:05:55;;;;;;;0.67;0.67;;;;;;;9.45;87.31;95911.59;4349337;32;20182;-59
2023/10/16 03:08:30;;;;;;;0.33;0.33;;;;;;;9.10;87.50;95907.22;4351343;32;20230;-60
2023/10/16 03:10:59;;;;;;;0.37;0.23;;;;;;;9.13;89.16;95903.25;4360942;32;20185;-59
2023/10/16 03:13:25;;;;;;;0.27;0.27;;;;;;;9.29;89.58;95908.22;4347136;32;20196;-59
2023/10/16 03:15:59;;;;;;;0.57;0.57;;;;;;;8.78;89.77;95901.44;4359155;32;20209;-60
2023/10/16 03:18:25;;;;;;;0.70;0.70;;;;;;;8.74;89.62;95911.78;4348334;32;20208;-59
2023/10/16 03:21:01;;;;;;;0.63;0.63;;;;;;;8.99;90.43;95915.44;4346856;32;20189;-59
2023/10/16 03:23:28;;;;;;;0.40;0.40;;;;;;;8.79;87.76;95919.69;4349714;32;20192;-59
2023/10/16 03:25:56;;;;;;;0.30;0.30;;;;;;;8.83;88.58;95922.63;4349247;32;20197;-60
2023/10/16 03:28:21;;;;;;;0.30;0.30;;;;;;;8.88;89.29;95928.69;4338918;32;20237;-60
2023/10/16 03:30:47;;;;;;;0.50;0.50;;;;;;;8.73;85.16;95927.94;4364319;32;20285;-59
2023/10/16 03:33:14;;;;;;;0.20;0.20;;;;;;;8.61;85.04;95923.69;4349326;32;20237;-59
2023/10/16 03:35:46;;;;;;;0.43;0.43;;;;;;;8.49;85.37;95933.75;4361827;32;20211;-59
2023/10/16 03:38:24;;;;;;;0.30;0.30;;;;;;;8.41;88.24;95923.69;4363030;32;20360;-59
2023/10/16 03:40:51;;;;;;;0.50;0.50;;;;;;;8.85;88.66;95912.56;4349553;32;20204;-59
2023/10/16 03:43:18;;;;;;;0.73;0.67;;;;;;;8.61;88.19;95918.41;4363682;32;20308;-59
2023/10/16 03:45:43;;;;;;;0.60;0.47;;;;;;;9.02;86.97;95918.34;4340673;32;20285;-59
2023/10/16 03:48:10;;;;;;;0.50;0.30;;;;;;;8.98;86.33;95912.00;4356653;32;20277;-59
2023/10/16 03:50:39;;;;;;;0.47;0.47;;;;;;;8.53;88.42;95910.19;4362527;32;20193;-59
2023/10/16 03:53:08;;;;;;;0.10;0.10;;;;;;;8.33;88.90;95910.19;4363032;32;20281;-59
2023/10/16 03:55:46;;;;;;;0.20;0.20;;;;;;;8.71;89.33;95911.53;4362830;32;20189;-59
2023/10/16 03:58:12;;;;;;;0.37;0.37;;;;;;;8.35;89.15;95910.72;4349498;32;20281;-59
2023/10/16 04:00:50;;;;;;;2.63;0.40;;;;;;;8.17;89.55;95902.25;4363120;32;20366;-59
2023/10/16 04:03:17;;;;;;;0.13;0.13;;;;;;;8.49;88.88;95903.88;4354902;32;20185;-59
2023/10/16 04:05:45;;;;;;;0.60;0.60;;;;;;;7.84;88.49;95905.38;4346410;32;20197;-59
2023/10/16 04:08:25;;;;;;;1.20;0.60;;;;;;;8.20;91.16;95896.44;4349237;32;20359;-59
2023/10/16 04:10:56;;;;;;;0.93;0.47;;;;;;;8.37;88.47;95900.69;4349378;32;20328;-61
2023/10/16 04:13:31;;;;;;;0.73;0.73;;;;;;;8.12;86.25;95904.88;4346726;32;20312;-60
2023/10/16 04:16:08;;;;;;;0.17;0.17;;;;;;;7.97;85.52;95891.66;4338597;32;20316;-59
2023/10/16 04:18:39;;;;;;;0.30;0.30;;;;;;;8.64;87.36;95885.34;4348979;32;20295;-59
2023/10/16 04:23:52;;;;;;;0.43;0.40;;;;;;;7.94;89.27;95884.25;4354729;32;20356;-60
2023/10/16 04:26:39;;;;;;;0.50;0.50;;;;;;;8.22;89.00;95878.47;4348152;32;20403;-59
2023/10/16 04:32:07;;;;;;;0.50;0.50;;;;;;;7.85;87.47;95877.91;4361500;32;20281;-59
2023/10/16 04:34:34;;;;;;;0.60;0.60;;;;;;;8.39;90.35;95866.84;4349634;32;20331;-59
2023/10/16 04:53:06;;;;;;;0.70;0.70;;;;;;;8.82;88.06;95855.69;4361329;32;20400;-59
2023/10/16 04:58:59;;;;;;;0.93;0.40;;;;;;;8.73;86.94;95854.63;4347867;32;20285;-59
2023/10/16 05:03:35;;;;;;;3.33;1.23;;;;;;;8.83;86.57;95846.69;4355608;32;20297;-59
2023/10/16 05:11:33;;;;;;;0.93;0.37;;;;;;;8.26;86.43;95841.72;4359259;32;20231;-59
2023/10/16 05:19:43;;;;;;;0.80;0.80;;;;;;;8.81;87.05;95848.81;4361573;32;20320;-59
2023/10/16 06:14:09;;;;;;;1.90;0.87;;;;;;;9.10;87.21;95845.56;4360581;32;20285;-59
2023/10/16 06:14:15;;;;;;;0.53;0.53;;;;;;;8.66;84.95;95853.34;4360223;32;20300;-60
2023/10/16 06:16:42;;;;;;;0.73;0.73;;;;;;;8.83;86.39;95862.56;4346763;32;20303;-59
2023/10/16 06:19:18;;;;;;;5.20;2.43;;;;;;;8.64;86.78;95861.53;4358618;32;20239;-60
2023/10/16 06:21:46;;;;;;;0.87;0.87;;;;;;;8.75;86.70;95860.44;4346750;32;20284;-59
2023/10/16 06:24:33;;;;;;;3.03;1.60;;;;;;;8.86;85.29;95861.25;4360025;32;20360;-59
2023/10/16 06:27:10;;;;;;;0.63;0.57;;;;;;;8.58;84.43;95871.34;4360269;32;20379;-59
2023/10/16 06:29:52;;;;;;;0.67;0.50;;;;;;;8.79;83.83;95864.16;4350746;32;20281;-60
2023/10/16 06:32:25;;;;;;;0.67;0.67;;;;;;;7.73;83.88;95870.22;4350336;32;20300;-60
2023/10/16 06:35:02;;;;;;;1.43;1.20;;;;;;;8.46;87.82;95857.59;4356227;32;20336;-61
2023/10/16 06:37:31;;;;;;;2.77;1.60;;;;;;;8.54;86.57;95869.47;4335577;32;20316;-59
2023/10/16 06:42:45;;;;;;;1.60;0.97;;;;;;;8.68;87.89;95859.16;4353436;32;20375;-59
2023/10/16 06:45:40;;;;;;;0.77;0.77;;;;;;;8.79;87.49;95856.22;4346330;32;20372;-59
2023/10/16 06:48:08;;;;;;;0.83;0.83;;;;;;;8.64;83.88;95858.91;4347108;32;20200;-59
2023/10/16 06:50:39;;;;;;;3.73;2.00;;;;;;;9.06;85.71;95857.75;4346574;32;20303;-59
2023/10/16 06:53:04;;;;;;;2.37;1.13;;;;;;;8.93;83.19;95857.25;4346981;32;20207;-59
2023/10/16 06:55:30;;;;;;;0.83;0.83;;;;;;;9.19;85.18;95855.28;4346197;32;20285;-59
2023/10/16 06:57:55;;;;;;;3.20;0.70;;;;;;;9.08;85.63;95850.31;4343841;32;20242;-60
2023/10/16 07:00:27;;;;;;;0.80;0.80;;;;;;;8.83;84.85;95854.63;4358534;32;20255;-60
2023/10/16 07:02:55;;;;;;;0.37;0.37;;;;;;;9.02;85.45;95852.19;4358645;32;20251;-59
2023/10/16 07:05:24;;;;;;;0.90;0.90;;;;;;;9.08;84.54;95859.06;4346659;32;20197;-59
2023/10/16 07:07:52;;;;;;;0.77;0.77;;;;;;;9.07;83.96;95861.97;4358004;32;20189;-59
2023/10/16 07:10:18;;;;;;;15.50;0.83;;;;;;;9.44;88.94;95854.41;4346557;32;20213;-59
2023/10/16 07:13:02;;;;;;;0.70;0.70;;;;;;;11.12;99.09;95859.16;4343860;32;20201;-58
2023/10/16 07:15:29;;;;;;;1.43;0.87;;;;;;;12.02;94.27;95856.44;4346332;32;20237;-58
2023/10/16 07:18:04;;;;;;;0.90;0.90;;;;;;;12.64;80.88;95850.91;4347198;32;20260;-59
2023/10/16 07:20:31;;;;;;;2.03;1.00;;;;;;;13.09;74.01;95863.37;4361785;32;20204;-58
2023/10/16 07:22:59;;;;;;;0.57;0.50;;;;;;;13.11;69.95;95860.44;4347380;32;20209;-59
2023/10/16 07:28:11;;;;;;;1.00;1.00;;;;;;;13.72;68.57;95854.69;4361847;32;21919;-59
2023/10/16 07:30:36;;;;;;;0.43;0.43;;;;;;;14.02;66.73;95858.56;4342988;32;20196;-57
2023/10/16 07:33:03;;;;;;;0.60;0.60;;;;;;;13.88;63.87;95857.03;4357280;32;20193;-61
2023/10/16 07:35:29;;;;;;;1.63;0.40;;;;;;;12.95;59.60;95865.25;4344289;32;20204;-60
2023/10/16 07:37:55;;;;;;;0.60;0.60;;;;;;;11.83;62.33;95857.53;4355786;32;20189;-59
2023/10/16 07:40:21;;;;;;;0.43;0.43;;;;;;;10.82;65.50;95870.87;4349529;32;20200;-59
2023/10/16 07:42:47;;;;;;;0.67;0.67;;;;;;;9.96;69.38;95874.25;4361843;32;20257;-59
2023/10/16 07:45:13;;;;;;;0.60;0.60;;;;;;;9.31;71.88;95870.87;4347189;32;20184;-61
2023/10/16 07:47:38;;;;;;;2.23;1.40;;;;;;;8.84;74.23;95871.28;4331681;32;20247;-59
2023/10/16 07:50:04;;;;;;;0.40;0.40;;;;;;;8.88;74.73;95869.69;4348904;32;20193;-59
2023/10/16 07:52:30;;;;;;;0.27;0.27;;;;;;;9.04;75.17;95868.59;4346230;32;20197;-58
2023/10/16 07:54:55;;;;;;;0.30;0.30;;;;;;;8.55;76.69;95877.16;4355847;32;20208;-59
2023/10/16 07:57:23;;;;;;;0.63;0.63;;;;;;;8.48;77.46;95874.00;4349762;32;20797;-59
2023/10/16 07:59:54;;;;;;;1.10;1.10;;;;;;;8.52;77.46;95869.75;4341838;32;20204;-59
2023/10/16 08:02:19;;;;;;;1.13;1.03;;;;;;;8.25;78.70;95870.00;4347110;32;20204;-60
2023/10/16 08:04:45;;;;;;;1.33;1.23;;;;;;;8.48;78.37;95868.72;4340140;32;20227;-59
2023/10/16 08:07:17;;;;;;;1.00;0.90;;;;;;;8.44;78.50;95866.84;4348795;32;20231;-59
2023/10/16 08:12:34;;;;;;;0.57;0.57;;;;;;;8.64;77.31;95863.41;4362303;32;20230;-58
2023/10/16 08:15:03;;;;;;;3.23;1.37;;;;;;;8.81;76.72;95862.03;4358919;32;20185;-59
2023/10/16 08:17:32;;;;;;;0.27;0.27;;;;;;;8.57;77.06;95874.25;4346939;32;20235;-59
2023/10/16 08:19:58;;;;;;;0.93;0.93;;;;;;;8.64;77.43;95858.91;4353858;32;20287;-59
2023/10/16 08:22:26;;;;;;;0.47;0.43;;;;;;;9.02;76.90;95856.69;4362395;32;20274;-60
2023/10/16 08:24:57;;;;;;;0.87;0.87;;;;;;;9.13;76.47;95853.75;4348880;32;20193;-61
2023/10/16 08:30:17;;;;;;;1.87;0.80;;;;;;;8.91;77.71;95858.59;4361299;32;20289;-59
2023/10/16 08:35:17;;;;;;;0.77;0.77;;;;;;;9.11;76.95;95855.09;4351320;32;20309;-61
2023/10/16 08:37:56;;;;;;;1.10;1.10;;;;;;;9.05;76.99;95853.50;4355263;32;20391;-59
2023/10/16 08:40:24;;;;;;;0.83;0.83;;;;;;;8.79;77.10;95866.81;4359745;32;20372;-60
2023/10/16 08:43:08;;;;;;;0.53;0.53;;;;;;;8.74;77.65;95866.81;4349992;32;20319;-60
2023/10/16 08:45:33;;;;;;;0.50;0.50;;;;;;;8.93;77.41;95857.25;4347782;32;20200;-59
2023/10/16 08:48:05;;;;;;;0.90;0.90;;;;;;;8.91;76.22;95862.03;4348093;32;20320;-59
2023/10/16 08:50:41;;;;;;;0.37;0.37;;;;;;;8.95;76.63;95865.69;4345728;32;20243;-60
2023/10/16 08:53:30;;;;;;;0.30;0.30;;;;;;;8.99;76.10;95851.94;4361310;32;20297;-60
2023/10/16 08:56:03;;;;;;;0.57;0.57;;;;;;;8.83;76.29;95856.47;4359971;32;20296;-59
2023/10/16 08:58:40;;;;;;;0.50;0.50;;;;;;;9.00;76.67;95853.50;4347323;32;20364;-60
2023/10/16 09:01:09;;;;;;;0.93;0.93;;;;;;;9.04;76.60;95852.72;4351489;32;20300;-60
2023/10/16 09:03:42;;;;;;;0.73;0.73;;;;;;;9.07;76.79;95857.47;4347680;32;20343;-59
2023/10/16 09:06:22;;;;;;;0.40;0.40;;;;;;;8.96;76.43;95862.00;4361394;32;20308;-63
2023/10/16 09:08:48;;;;;;;0.67;0.67;;;;;;;8.84;76.44;95858.84;4348649;32;20289;-59
2023/10/16 09:11:16;;;;;;;0.40;0.40;;;;;;;9.04;76.66;95859.84;4337790;32;20297;-59
2023/10/16 09:13:45;;;;;;;0.93;0.93;;;;;;;8.76;77.75;95851.47;4347861;32;20368;-58
2023/10/16 09:16:14;;;;;;;0.80;0.80;;;;;;;8.88;77.64;95849.34;4360523;32;20362;-59
2023/10/16 09:18:39;;;;;;;12.10;0.50;;;;;;;8.81;77.55;95854.09;4362080;32;20296;-60
2023/10/16 09:21:13;;;;;;;0.60;0.60;;;;;;;8.89;76.98;95850.13;4361083;32;20289;-60
2023/10/16 09:23:51;;;;;;;0.57;0.57;;;;;;;8.80;77.84;95852.50;4340052;32;20197;-60
2023/10/16 09:26:16;;;;;;;0.93;0.83;;;;;;;8.93;77.80;95845.88;4359277;32;20277;-60
2023/10/16 09:28:42;;;;;;;0.47;0.47;;;;;;;9.01;77.11;95847.16;4361002;32;20420;-59
2023/10/16 09:31:07;;;;;;;0.77;0.77;;;;;;;8.91;77.73;95842.72;4347914;32;20189;-60
2023/10/16 09:33:35;;;;;;;0.87;0.87;;;;;;;8.85;78.94;95841.94;4347077;32;20201;-59
2023/10/16 09:36:17;;;;;;;0.57;0.57;;;;;;;9.11;77.60;95841.84;4345903;32;20235;-59
2023/10/16 09:38:43;;;;;;;1.13;1.10;;;;;;;9.05;77.62;95837.63;4346091;32;20343;-59
2023/10/16 09:44:06;;;;;;;0.37;0.37;;;;;;;9.28;77.40;95837.00;4356183;32;20328;-60
2023/10/16 09:49:13;;;;;;;1.23;1.23;;;;;;;9.25;76.62;95833.03;4361116;32;20281;-60
2023/10/16 09:51:39;;;;;;;0.63;0.63;;;;;;;9.36;76.43;95835.62;4346877;32;20346;-60
2023/10/16 09:54:08;;;;;;;0.50;0.50;;;;;;;9.29;77.27;95823.50;4350764;32;20289;-60
2023/10/16 09:56:40;;;;;;;0.63;0.63;;;;;;;9.39;76.50;95830.59;4360808;32;20204;-61
2023/10/16 09:59:14;;;;;;;1.07;0.97;;;;;;;9.43;76.59;95823.69;4358243;32;20383;-59
2023/10/16 10:01:43;;;;;;;0.90;0.90;;;;;;;9.53;77.06;95823.66;4361228;32;20301;-59
2023/10/16 10:04:14;;;;;;;0.73;0.73;;;;;;;9.53;76.90;95828.16;4344699;32;20286;-59
2023/10/16 10:06:42;;;;;;;0.67;0.67;;;;;;;9.54;76.20;95824.44;4347009;32;20227;-60
2023/10/16 10:11:58;;;;;;;0.77;0.77;;;;;;;9.78;74.47;95821.88;4345950;32;20208;-59
2023/10/16 10:14:42;;;;;;;1.10;1.10;;;;;;;9.68;74.58;95824.59;4340843;32;20223;-59
2023/10/16 10:17:19;;;;;;;0.80;0.80;;;;;;;9.61;74.71;95819.59;4341191;32;20185;-60
2023/10/16 10:19:46;;;;;;;0.30;0.30;;;;;;;9.84;74.62;95818.13;4342963;32;20185;-59
2023/10/16 10:22:22;;;;;;;0.80;0.80;;;;;;;9.81;74.41;95818.69;4343353;32;20284;-60
2023/10/16 10:25:06;;;;;;;0.67;0.67;;;;;;;9.83;72.31;95821.84;4358870;32;20193;-59
2023/10/16 10:27:32;;;;;;;0.30;0.30;;;;;;;10.02;71.46;95821.97;4347127;32;20233;-59
2023/10/16 10:30:01;;;;;;;0.40;0.40;;;;;;;9.89;68.85;95815.47;4360485;32;20255;-60
2023/10/16 10:32:28;;;;;;;0.50;0.50;;;;;;;9.99;69.30;95818.00;4346934;32;20193;-59
2023/10/16 10:35:28;;;;;;;2.57;0.80;;;;;;;9.83;70.08;95813.91;4359719;32;20208;-59
2023/10/16 10:38:07;;;;;;;0.37;0.37;;;;;;;10.06;70.17;95815.06;4358842;32;20211;-59
2023/10/16 10:40:35;;;;;;;0.30;0.30;;;;;;;9.94;69.07;95802.19;4346616;32;20250;-59
2023/10/16 10:43:04;;;;;;;0.47;0.47;;;;;;;9.96;68.35;95802.69;4352108;32;20201;-59
2023/10/16 10:45:39;;;;;;;0.80;0.43;;;;;;;10.12;68.77;95803.34;4355532;32;20261;-59
2023/10/16 10:48:11;;;;;;;1.17;0.97;;;;;;;10.27;70.35;95795.28;4354853;32;20212;-59
2023/10/16 10:50:39;;;;;;;0.40;0.40;;;;;;;10.29;69.58;95787.84;4349935;32;20193;-59
2023/10/16 10:53:13;;;;;;;0.50;0.50;;;;;;;10.13;69.08;95792.47;4348784;32;20193;-60
2023/10/16 10:55:58;;;;;;;6.57;1.27;;;;;;;10.20;68.78;95792.16;4360301;32;20219;-60
2023/10/16 10:58:32;;;;;;;0.40;0.40;;;;;;;10.28;69.14;95787.06;4359125;32;20255;-60
2023/10/16 11:03:45;;;;;;;0.67;0.67;;;;;;;10.53;69.02;95778.06;4352919;32;20239;-59
2023/10/16 11:06:22;;;;;;;0.60;0.53;;;;;;;10.47;68.17;95771.22;4349842;32;20201;-59
2023/10/16 11:08:53;;;;;;;0.83;0.53;;;;;;;10.57;67.98;95779.09;4362698;32;20223;-59
2023/10/16 11:11:18;;;;;;;1.40;1.20;;;;;;;10.53;65.26;95769.31;4349476;32;20189;-59
2023/10/16 11:13:49;;;;;;;0.70;0.70;;;;;;;10.55;65.29;95775.12;4363144;32;20262;-59
2023/10/16 11:16:15;;;;;;;0.50;0.50;;;;;;;10.33;65.44;95773.75;4361829;32;20195;-59
2023/10/16 11:18:57;;;;;;;0.10;0.10;;;;;;;10.45;66.13;95762.75;4363209;32;20216;-60
2023/10/16 11:21:25;;;;;;;0.63;0.63;;;;;;;10.55;66.37;95765.31;4343387;32;20185;-59
2023/10/16 11:23:55;;;;;;;0.90;0.90;;;;;;;10.49;66.42;95752.38;4344730;32;20204;-59
2023/10/16 11:26:26;;;;;;;1.40;0.83;;;;;;;10.59;67.48;95754.94;4362724;32;20247;-59
2023/10/16 11:28:54;;;;;;;1.43;0.70;;;;;;;10.58;66.24;95743.53;4351675;32;20253;-59
2023/10/16 11:31:21;;;;;;;1.20;1.20;;;;;;;10.76;67.60;95744.66;4364811;32;20227;-59
2023/10/16 11:34:07;;;;;;;0.90;0.90;;;;;;;10.89;68.43;95738.66;4339213;32;20246;-59
2023/10/16 11:36:35;;;;;;;8.53;1.47;;;;;;;10.90;68.71;95732.25;4347824;32;20262;-59
2023/10/16 11:39:02;;;;;;;0.83;0.83;;;;;;;10.87;68.75;95732.03;4352717;32;20197;-59
2023/10/16 11:41:30;;;;;;;0.87;0.87;;;;;;;10.87;68.07;95729.38;4347921;32;20211;-59
2023/10/16 11:43:56;;;;;;;0.80;0.80;;;;;;;10.77;67.93;95726.88;4362150;32;20250;-59
2023/10/16 11:46:29;;;;;;;0.60;0.60;;;;;;;10.79;68.12;95730.03;4361740;32;20220;-59
2023/10/16 11:49:17;;;;;;;0.73;0.73;;;;;;;10.85;67.15;95721.72;4361348;32;20251;-59
2023/10/16 11:51:51;;;;;;;0.87;0.87;;;;;;;10.68;67.79;95721.38;4349441;32;20326;-59
2023/10/16 11:54:21;;;;;;;0.63;0.63;;;;;;;10.63;67.29;95719.56;4335451;32;20181;-59
2023/10/16 11:56:53;;;;;;;1.40;1.30;;;;;;;10.47;68.04;95710.22;4357579;32;20192;-59
2023/10/16 11:59:25;;;;;;;0.40;0.40;;;;;;;10.53;68.18;95716.28;4348519;32;20208;-60
2023/10/16 12:01:59;;;;;;;0.73;0.73;;;;;;;10.40;68.31;95714.28;4356984;32;20189;-59
2023/10/16 12:04:26;;;;;;;1.03;1.03;;;;;;;10.38;68.45;95719.09;4343480;32;20182;-59
2023/10/16 12:06:52;;;;;;;1.00;1.00;;;;;;;10.32;68.34;95719.16;4344288;32;20238;-64
2023/10/16 12:09:23;;;;;;;0.63;0.63;;;;;;;10.35;68.40;95722.31;4361377;32;20185;-60
2023/10/16 12:11:52;;;;;;;0.47;0.47;;;;;;;10.35;68.88;95709.03;4349251;32;20200;-59
2023/10/16 12:14:18;;;;;;;0.93;0.93;;;;;;;10.42;69.04;95702.31;4346009;32;20193;-59
2023/10/16 12:16:47;;;;;;;1.03;1.03;;;;;;;10.57;68.35;95715.44;4340586;32;20193;-59
2023/10/16 12:19:16;;;;;;;1.30;1.30;;;;;;;10.54;67.69;95709.87;4362082;32;20272;-60
2023/10/16 12:21:43;;;;;;;1.50;0.73;;;;;;;10.54;67.35;95699.28;4347907;32;20252;-60
2023/10/16 12:24:12;;;;;;;0.50;0.50;;;;;;;10.51;66.72;95703.28;4352292;32;20205;-60
2023/10/16 12:26:40;;;;;;;0.60;0.60;;;;;;;10.64;66.91;95694.63;4348271;32;20220;-60
2023/10/16 12:29:08;;;;;;;1.37;1.37;;;;;;;10.65;66.67;95692.78;4341686;32;20213;-60
2023/10/16 12:31:34;;;;;;;0.87;0.87;;;;;;;10.62;67.39;95688.03;4343987;32;20204;-61
2023/10/16 12:33:59;;;;;;;3.17;3.07;;;;;;;10.65;66.73;95679.50;4356417;32;20213;-61
2023/10/16 12:36:26;;;;;;;1.00;1.00;;;;;;;10.76;65.71;95686.28;4333122;32;20193;-60
2023/10/16 12:38:54;;;;;;;1.10;1.00;;;;;;;10.72;65.84;95682.59;4334053;32;20216;-61
2023/10/16 12:41:23;;;;;;;0.40;0.40;;;;;;;10.85;65.61;95678.44;4348291;32;20198;-60
2023/10/16 12:43:50;;;;;;;0.60;0.60;;;;;;;10.81;65.18;95683.53;4347184;32;20197;-60
2023/10/16 12:46:16;;;;;;;0.70;0.70;;;;;;;10.80;65.26;95679.34;4332954;32;20193;-60
2023/10/16 12:48:43;;;;;;;1.77;1.67;;;;;;;10.86;65.76;95664.91;4333487;32;20272;-60
2023/10/16 12:51:11;;;;;;;1.33;1.03;;;;;;;10.94;64.94;95672.22;4346587;32;20197;-60
2023/10/16 12:53:38;;;;;;;1.03;1.03;;;;;;;11.00;64.31;95665.78;4323476;32;20251;-60
2023/10/16 12:56:05;;;;;;;0.13;0.13;;;;;;;11.02;63.73;95663.59;4346484;32;20259;-60
2023/10/16 12:58:35;;;;;;;0.80;0.80;;;;;;;10.97;63.59;95661.03;4324719;32;20206;-60
2023/10/16 13:01:04;;;;;;;0.70;0.70;;;;;;;10.89;63.35;95664.31;4332604;32;20207;-60
2023/10/16 13:03:33;;;;;;;1.23;0.97;;;;;;;10.74;63.58;95648.63;4331970;32;20193;-60
2023/10/16 13:05:59;;;;;;;1.40;1.20;;;;;;;10.78;64.59;95654.94;4346230;32;20198;-60
2023/10/16 13:08:26;;;;;;;1.20;1.20;;;;;;;10.85;64.31;95655.34;4346374;32;20185;-60
2023/10/16 13:10:52;;;;;;;0.63;0.63;;;;;;;10.86;63.88;95646.31;4334217;32;20192;-60
2023/10/16 13:13:21;;;;;;;0.60;0.60;;;;;;;10.88;63.64;95652.12;4346936;32;20247;-60
2023/10/16 13:15:51;;;;;;;0.93;0.93;;;;;;;10.84;63.76;95645.81;4345969;32;20193;-60
2023/10/16 13:18:24;;;;;;;0.73;0.73;;;;;;;10.97;62.75;95645.12;4320870;32;20203;-60
2023/10/16 13:20:54;;;;;;;0.77;0.77;;;;;;;10.95;62.38;95647.25;4344281;32;20235;-61
2023/10/16 13:23:19;;;;;;;2.17;1.17;;;;;;;10.93;62.29;95644.09;4345803;32;20190;-58
2023/10/16 13:25:44;;;;;;;1.53;0.97;;;;;;;10.99;62.48;95650.94;4346065;32;20212;-61
2023/10/16 13:28:10;;;;;;;1.87;1.20;;;;;;;11.03;63.50;95643.94;4346013;32;20249;-60
2023/10/16 13:30:35;;;;;;;0.40;0.40;;;;;;;10.97;62.57;95639.03;4346031;32;20193;-60
2023/10/16 13:33:06;;;;;;;0.70;0.70;;;;;;;11.06;62.62;95636.47;4345884;32;20197;-59
2023/10/16 13:35:31;;;;;;;1.00;0.90;;;;;;;11.08;61.19;95635.13;4335310;32;20204;-60
2023/10/16 13:37:58;;;;;;;1.17;1.03;;;;;;;11.04;61.91;95628.81;4354136;32;20205;-60
2023/10/16 13:40:28;;;;;;;0.23;0.23;;;;;;;11.00;61.46;95631.28;4359952;32;20201;-60
2023/10/16 13:42:55;;;;;;;0.33;0.33;;;;;;;10.97;61.22;95626.53;4356721;32;20258;-60
2023/10/16 13:45:23;;;;;;;0.80;0.80;;;;;;;10.94;61.47;95621.00;4344681;32;20210;-59
2023/10/16 13:47:50;;;;;;;0.60;0.60;;;;;;;10.97;62.69;95621.22;4351814;32;20197;-59
2023/10/16 13:50:25;;;;;;;12.93;0.87;;;;;;;10.73;62.41;95609.88;4350587;32;20189;-59